Time;durP1;ratioP1;P1;durP2;ratioP2;P2;SDS_P1;SDS_P2;PMS_P1;PMS_P2;Temp;Humidity;BMP_temperature;BMP_pressure;BME280_temperature;BME280_humidity;BME280_pressure;Samples;Min_cycle;Max_cycle;Signal;HPM_P1;HPM_P2
2024/03/29 00:00:41;;;;;;;3.08;0.22;;;;;;;4.17;51.74;99087.88;4931038;28;20043;-78
2024/03/29 00:03:07;;;;;;;3.60;0.38;;;;;;;4.33;51.25;99086.31;4910823;28;21413;-77
2024/03/29 00:05:36;;;;;;;6.05;0.40;;;;;;;4.17;51.74;99082.72;4929094;28;20105;-77
2024/03/29 00:08:02;;;;;;;2.80;0.38;;;;;;;4.25;51.44;99087.56;4928328;28;20232;-77
2024/03/29 00:10:27;;;;;;;0.88;0.32;;;;;;;4.16;51.25;99083.59;4931971;28;20649;-77
2024/03/29 00:12:53;;;;;;;1.60;0.30;;;;;;;4.02;51.53;99079.84;4912257;29;20126;-77
2024/03/29 00:15:18;;;;;;;1.75;0.20;;;;;;;4.18;51.61;99080.03;4931749;28;20043;-77
2024/03/29 00:17:44;;;;;;;0.90;0.35;;;;;;;4.06;51.57;99082.31;4928543;28;20071;-77
2024/03/29 00:20:09;;;;;;;1.27;0.20;;;;;;;3.97;51.72;99080.97;4921096;28;20101;-77
2024/03/29 00:22:35;;;;;;;4.07;0.10;;;;;;;4.24;51.46;99081.53;4925913;28;20119;-77
2024/03/29 00:25:01;;;;;;;2.72;0.25;;;;;;;4.39;50.94;99075.72;4908683;28;20050;-77
2024/03/29 00:27:28;;;;;;;2.60;0.20;;;;;;;4.72;50.18;99080.34;4939824;28;20051;-77
2024/03/29 00:29:54;;;;;;;0.93;0.10;;;;;;;3.99;51.66;99085.16;4933374;28;21293;-77
2024/03/29 00:32:21;;;;;;;0.43;0.10;;;;;;;4.38;50.59;99086.97;4915041;28;20050;-77
2024/03/29 00:34:51;;;;;;;1.80;0.20;;;;;;;4.56;50.11;99079.31;4931986;28;20098;-77
2024/03/29 00:37:16;;;;;;;2.75;0.25;;;;;;;4.27;50.68;99078.81;4942147;28;20062;-77
2024/03/29 00:39:42;;;;;;;6.03;0.30;;;;;;;4.31;50.36;99080.38;4931621;28;20210;-77
2024/03/29 00:42:18;;;;;;;0.47;0.10;;;;;;;4.58;50.15;99083.50;4910344;28;20053;-77
2024/03/29 00:44:44;;;;;;;1.02;0.10;;;;;;;4.40;50.23;99086.91;4931089;28;20154;-77
2024/03/29 00:47:09;;;;;;;1.67;0.30;;;;;;;4.72;49.63;99084.66;4912432;28;20040;-77
2024/03/29 00:49:36;;;;;;;2.40;0.30;;;;;;;4.39;50.49;99085.25;4933891;28;20425;-77
2024/03/29 00:52:03;;;;;;;1.38;0.10;;;;;;;4.55;49.95;99088.81;4943452;28;20426;-79
2024/03/29 00:54:29;;;;;;;0.82;0.10;;;;;;;4.22;50.60;99096.28;4950557;28;20483;-79
2024/03/29 00:56:54;;;;;;;2.88;0.45;;;;;;;4.17;50.86;99099.06;4926939;28;20505;-79
2024/03/29 00:59:20;;;;;;;6.93;0.30;;;;;;;4.58;49.81;99101.63;4932811;28;20032;-76
2024/03/29 01:01:46;;;;;;;0.60;0.30;;;;;;;4.10;50.96;99099.41;4947348;28;20043;-78
2024/03/29 01:04:12;;;;;;;1.77;0.20;;;;;;;4.34;50.26;99098.38;4945981;28;20040;-78
2024/03/29 01:06:38;;;;;;;6.85;0.20;;;;;;;4.30;50.40;99093.41;4947115;28;20046;-78
2024/03/29 01:09:05;;;;;;;0.93;0.10;;;;;;;4.32;50.66;99104.47;4930207;28;20039;-79
2024/03/29 01:11:30;;;;;;;1.17;0.20;;;;;;;4.16;50.89;99107.75;4935933;28;20039;-78
2024/03/29 01:13:56;;;;;;;1.75;0.10;;;;;;;4.15;50.71;99100.88;4903836;29;20046;-78
2024/03/29 01:16:21;;;;;;;1.30;0.15;;;;;;;4.54;49.82;99097.50;4949604;28;20035;-78
2024/03/29 01:18:47;;;;;;;4.10;0.30;;;;;;;4.28;50.47;99106.38;4931080;28;20035;-79
2024/03/29 01:21:13;;;;;;;4.75;0.20;;;;;;;4.10;50.97;99100.22;4931723;28;20456;-79
2024/03/29 01:23:39;;;;;;;1.45;0.20;;;;;;;4.13;50.74;99109.59;4930047;28;20066;-77
2024/03/29 01:26:06;;;;;;;3.92;0.22;;;;;;;4.19;50.72;99109.34;4929284;28;20467;-76
2024/03/29 01:28:31;;;;;;;3.70;0.28;;;;;;;4.09;50.76;99110.63;4931308;28;20462;-79
2024/03/29 01:31:00;;;;;;;1.95;0.10;;;;;;;4.26;50.74;99107.34;4929244;28;20047;-76
2024/03/29 01:33:25;;;;;;;7.68;0.32;;;;;;;4.19;50.61;99106.78;4924239;28;20258;-79
2024/03/29 01:35:51;;;;;;;2.88;0.20;;;;;;;4.48;50.15;99117.63;4932335;28;20478;-79
2024/03/29 01:38:17;;;;;;;4.25;0.20;;;;;;;4.12;50.55;99110.50;4927471;28;20153;-77
2024/03/29 01:40:43;;;;;;;1.42;0.10;;;;;;;4.37;50.07;99121.50;4933081;28;20043;-76
2024/03/29 01:43:08;;;;;;;2.75;0.10;;;;;;;4.35;50.09;99120.72;4944557;28;20094;-77
2024/03/29 01:45:39;;;;;;;1.00;0.40;;;;;;;4.21;50.38;99116.13;4931380;28;20043;-77
2024/03/29 01:48:09;;;;;;;4.82;0.20;;;;;;;4.08;50.95;99119.31;4927781;28;20075;-77
2024/03/29 01:50:36;;;;;;;1.13;0.40;;;;;;;4.04;50.83;99122.91;4930364;28;20039;-76
2024/03/29 01:53:05;;;;;;;0.55;0.10;;;;;;;4.40;49.87;99117.94;4935760;28;20514;-77
2024/03/29 01:55:31;;;;;;;0.60;0.17;;;;;;;4.43;49.71;99115.22;4946203;28;20474;-77
2024/03/29 01:57:57;;;;;;;1.55;0.10;;;;;;;4.59;49.47;99116.25;4935556;28;20589;-77
2024/03/29 02:00:24;;;;;;;1.45;0.20;;;;;;;4.53;49.75;99118.28;4934617;28;21272;-77
2024/03/29 02:02:51;;;;;;;3.75;0.80;;;;;;;4.38;50.07;99115.41;4937688;28;20390;-77
2024/03/29 02:05:18;;;;;;;2.97;0.28;;;;;;;3.93;51.25;99116.41;4935761;28;20042;-77
2024/03/29 02:07:47;;;;;;;2.83;0.17;;;;;;;3.73;51.75;99121.56;4933580;28;20039;-79
2024/03/29 02:10:14;;;;;;;2.53;0.85;;;;;;;3.99;50.91;99116.19;4928482;28;20038;-77
2024/03/29 02:12:39;;;;;;;1.60;0.28;;;;;;;4.07;51.09;99122.78;4948849;28;20427;-79
2024/03/29 02:15:05;;;;;;;1.33;0.40;;;;;;;4.07;51.18;99127.94;4925595;28;20062;-76
2024/03/29 02:17:31;;;;;;;5.28;0.20;;;;;;;3.96;50.99;99118.91;4918591;28;20205;-79
2024/03/29 02:19:57;;;;;;;2.03;0.13;;;;;;;3.71;51.40;99121.59;4903121;28;20113;-76
2024/03/29 02:22:24;;;;;;;1.02;0.20;;;;;;;3.97;51.29;99128.31;4932018;28;20533;-79
2024/03/29 02:24:51;;;;;;;2.75;0.20;;;;;;;3.94;51.05;99125.88;4946974;28;20047;-77
2024/03/29 02:27:17;;;;;;;4.43;0.82;;;;;;;3.64;52.06;99129.66;4927189;28;21214;-76
2024/03/29 02:29:42;;;;;;;1.70;0.20;;;;;;;4.12;50.34;99119.09;4949852;28;20051;-77
2024/03/29 02:32:08;;;;;;;2.90;0.13;;;;;;;4.03;50.33;99119.50;4927406;28;20439;-79
2024/03/29 02:34:33;;;;;;;2.88;0.10;;;;;;;4.53;49.57;99107.91;4932969;28;20030;-77
2024/03/29 02:36:59;;;;;;;7.78;0.30;;;;;;;4.33;49.92;99107.00;4925209;28;20027;-76
2024/03/29 02:39:25;;;;;;;1.73;0.10;;;;;;;4.22;50.18;99111.81;4932915;28;20031;-76
2024/03/29 02:41:51;;;;;;;0.98;0.10;;;;;;;4.58;49.32;99111.97;4932691;28;20134;-76
2024/03/29 02:44:16;;;;;;;5.30;0.95;;;;;;;4.74;48.88;99101.78;4929966;28;20130;-77
2024/03/29 02:46:42;;;;;;;3.35;0.38;;;;;;;4.39;49.62;99099.00;4931828;28;20049;-77
2024/03/29 02:49:09;;;;;;;2.63;0.40;;;;;;;4.51;49.50;99100.22;4931646;28;20035;-78
2024/03/29 02:51:34;;;;;;;1.63;0.40;;;;;;;4.46;49.36;99101.34;4935980;28;20427;-78
2024/03/29 02:54:00;;;;;;;3.50;0.10;;;;;;;4.52;49.20;99093.28;4928027;28;20637;-79
2024/03/29 02:56:26;;;;;;;3.33;0.20;;;;;;;4.60;49.26;99096.38;4932681;28;20035;-79
2024/03/29 02:58:52;;;;;;;5.57;0.10;;;;;;;4.75;48.73;99095.72;4928063;28;20035;-76
2024/03/29 03:01:17;;;;;;;1.85;0.20;;;;;;;4.32;49.99;99092.41;4945711;28;20038;-79
2024/03/29 03:03:43;;;;;;;3.65;0.25;;;;;;;4.40;49.39;99103.25;4915886;28;21153;-76
2024/03/29 03:06:08;;;;;;;5.55;0.20;;;;;;;4.11;50.29;99094.13;4927148;28;20111;-79
2024/03/29 03:11:18;;;;;;;2.88;0.30;;;;;;;4.35;50.01;99094.84;4944676;28;20054;-78
2024/03/29 03:13:43;;;;;;;4.10;0.10;;;;;;;4.54;49.71;99099.25;4933941;28;20534;-78
2024/03/29 03:16:09;;;;;;;3.13;0.10;;;;;;;3.87;51.10;99105.50;4914941;29;20035;-79
2024/03/29 03:18:34;;;;;;;2.40;0.40;;;;;;;3.87;50.82;99105.50;4914884;28;20039;-78
2024/03/29 03:21:00;;;;;;;4.78;0.22;;;;;;;4.06;50.69;99105.59;4946927;28;20458;-78
2024/03/29 03:23:27;;;;;;;1.45;0.10;;;;;;;4.28;50.21;99106.38;4929691;28;20420;-78
2024/03/29 03:26:03;;;;;;;1.92;0.10;;;;;;;4.55;49.23;99114.69;4933458;28;20549;-79
2024/03/29 03:28:29;;;;;;;2.15;0.40;;;;;;;4.63;48.83;99110.03;4928363;28;20035;-77
2024/03/29 03:30:55;;;;;;;3.25;0.25;;;;;;;4.14;50.40;99117.31;4935638;28;20434;-79
2024/03/29 03:33:20;;;;;;;0.43;0.20;;;;;;;4.39;49.47;99109.34;4901957;28;20848;-78
2024/03/29 03:35:46;;;;;;;4.90;0.20;;;;;;;4.43;49.61;99110.91;4915838;29;20764;-79
2024/03/29 03:38:12;;;;;;;0.73;0.10;;;;;;;4.27;49.84;99115.03;4931078;28;20554;-79
2024/03/29 03:40:38;;;;;;;0.80;0.20;;;;;;;4.26;49.56;99110.78;4915815;29;20035;-78
2024/03/29 03:43:05;;;;;;;2.25;0.30;;;;;;;4.38;49.53;99115.41;4928516;28;20043;-78
2024/03/29 03:45:38;;;;;;;3.15;0.43;;;;;;;4.49;49.54;99114.13;4947006;28;20065;-79
2024/03/29 03:48:06;;;;;;;1.38;0.17;;;;;;;4.50;49.13;99106.31;4929653;28;20047;-79
2024/03/29 03:50:32;;;;;;;2.10;0.13;;;;;;;4.50;48.98;99095.97;4932828;28;20449;-78
2024/03/29 03:52:57;;;;;;;6.53;0.38;;;;;;;4.37;49.47;99100.81;4933061;28;20053;-79
2024/03/29 03:55:24;;;;;;;5.40;0.25;;;;;;;4.40;49.07;99108.44;4941625;28;20636;-79
2024/03/29 03:57:49;;;;;;;1.15;0.03;;;;;;;4.19;49.52;99109.34;4932724;28;20126;-79
2024/03/29 04:00:15;;;;;;;4.43;0.20;;;;;;;4.58;48.68;99113.72;4927825;28;20035;-79
2024/03/29 04:02:40;;;;;;;1.27;0.10;;;;;;;4.12;49.78;99121.69;4947433;28;20110;-79
2024/03/29 04:05:07;;;;;;;1.10;0.20;;;;;;;4.24;49.71;99109.16;4925682;28;20102;-78
2024/03/29 04:07:32;;;;;;;2.30;0.17;;;;;;;4.02;49.73;99100.53;4933274;28;20049;-79
2024/03/29 04:09:57;;;;;;;5.50;0.30;;;;;;;4.30;49.22;99111.50;4948285;28;20035;-78
2024/03/29 04:12:23;;;;;;;0.73;0.20;;;;;;;3.90;50.17;99119.13;4926076;28;20630;-79
2024/03/29 04:14:48;;;;;;;3.95;0.10;;;;;;;3.76;50.59;99108.50;4949966;28;20035;-79
2024/03/29 04:17:14;;;;;;;2.42;0.52;;;;;;;4.29;49.17;99113.22;4925567;28;20039;-78
2024/03/29 04:19:39;;;;;;;3.85;0.85;;;;;;;4.46;49.17;99117.69;4936625;28;20118;-78
2024/03/29 04:22:05;;;;;;;1.45;0.08;;;;;;;4.71;48.08;99119.22;4931711;28;20031;-78
2024/03/29 04:24:30;;;;;;;2.83;0.20;;;;;;;4.36;49.06;99119.84;4936914;28;20035;-78
2024/03/29 04:26:56;;;;;;;0.90;0.10;;;;;;;4.48;48.77;99123.63;4934910;28;20601;-78
2024/03/29 04:29:22;;;;;;;0.82;0.13;;;;;;;4.36;48.90;99125.00;4930822;28;20763;-78
2024/03/29 04:31:47;;;;;;;5.25;0.10;;;;;;;4.60;48.28;99124.84;4936129;28;20055;-78
2024/03/29 04:34:13;;;;;;;2.75;0.15;;;;;;;4.71;48.05;99125.22;4915102;28;20039;-78
2024/03/29 04:36:41;;;;;;;2.47;0.30;;;;;;;4.62;48.37;99128.22;4935354;28;20031;-78
2024/03/29 04:39:07;;;;;;;4.10;0.13;;;;;;;4.28;48.88;99123.66;4915436;29;20090;-78
2024/03/29 04:41:34;;;;;;;4.00;0.10;;;;;;;4.87;47.42;99124.56;4922673;29;20039;-78
2024/03/29 04:44:00;;;;;;;1.38;0.20;;;;;;;4.95;47.23;99132.88;4923913;29;20070;-78
2024/03/29 04:46:29;;;;;;;2.90;0.10;;;;;;;4.78;47.95;99142.16;4932487;28;20142;-78
2024/03/29 04:48:55;;;;;;;1.40;0.03;;;;;;;4.76;48.11;99136.22;4959947;28;20043;-78
2024/03/29 04:51:20;;;;;;;1.77;0.40;;;;;;;4.93;47.47;99140.69;4945701;28;20043;-78
2024/03/29 04:53:46;;;;;;;3.58;0.10;;;;;;;4.87;47.75;99140.09;4962327;28;20047;-79
2024/03/29 04:56:11;;;;;;;1.10;0.38;;;;;;;4.62;48.26;99143.75;4944054;28;20186;-78
2024/03/29 04:58:37;;;;;;;2.78;0.10;;;;;;;4.88;47.55;99136.59;4926981;29;20036;-78
2024/03/29 05:01:03;;;;;;;4.53;0.22;;;;;;;4.83;47.66;99144.56;4944247;28;20039;-78
2024/03/29 05:03:28;;;;;;;1.70;0.10;;;;;;;4.80;47.83;99140.34;4937753;28;21148;-78
2024/03/29 05:05:53;;;;;;;4.13;0.20;;;;;;;4.55;48.40;99137.16;4943206;28;20042;-78
2024/03/29 05:08:21;;;;;;;1.50;0.15;;;;;;;4.72;47.86;99134.69;4934400;28;20047;-78
2024/03/29 05:10:50;;;;;;;2.00;0.15;;;;;;;4.74;48.08;99132.84;4941812;28;21048;-78
2024/03/29 05:13:16;;;;;;;1.27;0.10;;;;;;;4.81;47.85;99134.28;4939875;28;20047;-78
2024/03/29 05:15:42;;;;;;;4.43;0.10;;;;;;;4.82;48.05;99138.53;4939834;28;20086;-78
2024/03/29 05:18:08;;;;;;;2.55;0.20;;;;;;;4.77;47.64;99145.69;4940349;28;20039;-78
2024/03/29 05:20:34;;;;;;;3.08;0.32;;;;;;;4.40;48.87;99144.66;4956566;28;20360;-78
2024/03/29 05:23:00;;;;;;;3.30;0.30;;;;;;;4.60;48.18;99148.97;4942467;28;20043;-78
2024/03/29 05:25:26;;;;;;;4.93;0.50;;;;;;;4.90;47.59;99158.09;4924098;29;20039;-78
2024/03/29 05:27:51;;;;;;;0.95;0.20;;;;;;;5.02;47.52;99158.41;4940609;28;20105;-78
2024/03/29 05:30:17;;;;;;;3.92;0.20;;;;;;;4.48;48.03;99151.25;4939511;28;20047;-78
2024/03/29 05:32:43;;;;;;;3.97;0.10;;;;;;;4.70;47.73;99154.63;4940481;28;20055;-79
2024/03/29 05:35:09;;;;;;;3.97;0.20;;;;;;;5.07;47.56;99147.84;4942460;28;20586;-78
2024/03/29 05:37:36;;;;;;;1.83;0.20;;;;;;;4.55;48.23;99158.69;4953275;28;20102;-78
2024/03/29 05:40:04;;;;;;;1.40;0.10;;;;;;;4.92;47.17;99158.88;4942463;28;20052;-78
2024/03/29 05:42:31;;;;;;;0.60;0.20;;;;;;;4.95;47.30;99149.25;4937192;28;20043;-78
2024/03/29 05:44:57;;;;;;;0.32;0.00;;;;;;;5.17;46.78;99149.13;4925067;28;20765;-78
2024/03/29 05:47:22;;;;;;;2.85;0.25;;;;;;;4.85;47.37;99166.03;4949027;28;20074;-78
2024/03/29 05:49:49;;;;;;;1.55;0.25;;;;;;;5.35;46.68;99169.94;4924116;28;20039;-78
2024/03/29 05:52:15;;;;;;;2.75;0.10;;;;;;;5.13;46.65;99168.28;4917167;28;20070;-77
2024/03/29 05:54:41;;;;;;;1.75;0.10;;;;;;;5.49;46.26;99175.31;4939828;28;20356;-78
2024/03/29 05:57:08;;;;;;;1.17;0.20;;;;;;;5.34;46.34;99182.03;4943828;28;20039;-78
2024/03/29 05:59:34;;;;;;;0.73;0.22;;;;;;;4.93;47.32;99187.28;4919589;29;20042;-78
2024/03/29 06:01:59;;;;;;;6.10;0.63;;;;;;;5.50;46.36;99170.97;4925727;28;20039;-78
2024/03/29 06:04:32;;;;;;;1.48;0.25;;;;;;;5.67;45.65;99190.00;4919150;28;20031;-78
2024/03/29 06:06:58;;;;;;;1.85;0.10;;;;;;;5.05;47.06;99193.69;4920632;28;20066;-78
2024/03/29 06:09:24;;;;;;;2.13;0.10;;;;;;;5.50;46.33;99192.53;4938854;28;20047;-77
2024/03/29 06:11:50;;;;;;;1.30;0.88;;;;;;;5.25;46.73;99203.16;4922824;29;20035;-77
2024/03/29 06:19:43;;;;;;;2.38;0.10;;;;;;;5.81;45.87;99185.94;4940085;28;20054;-77
2024/03/29 06:22:09;;;;;;;2.38;0.10;;;;;;;5.96;45.63;99179.19;4939879;28;20444;-77
2024/03/29 06:24:35;;;;;;;1.75;0.20;;;;;;;5.52;46.45;99188.13;4936398;28;20063;-77
2024/03/29 06:27:01;;;;;;;5.18;0.32;;;;;;;6.09;45.15;99191.47;4942524;28;20047;-77
2024/03/29 06:29:26;;;;;;;3.08;0.15;;;;;;;5.94;45.42;99186.19;4953006;28;20039;-77
2024/03/29 06:31:52;;;;;;;3.58;0.30;;;;;;;5.53;45.91;99197.59;4938580;28;20097;-77
2024/03/29 06:34:18;;;;;;;0.57;0.10;;;;;;;5.96;45.31;99192.16;4934525;28;20238;-77
2024/03/29 06:36:44;;;;;;;0.70;0.10;;;;;;;5.90;45.62;99195.84;4938967;28;20027;-77
2024/03/29 06:39:10;;;;;;;1.15;0.20;;;;;;;5.59;46.00;99201.63;4951234;28;20035;-77
2024/03/29 06:41:37;;;;;;;1.02;0.08;;;;;;;5.63;45.94;99219.56;4950282;28;20409;-77
2024/03/29 06:44:02;;;;;;;2.28;0.13;;;;;;;5.37;46.54;99214.72;4935188;28;20591;-77
2024/03/29 06:46:28;;;;;;;6.65;0.25;;;;;;;5.98;45.68;99213.66;4934345;28;20043;-77
2024/03/29 06:48:55;;;;;;;2.50;0.15;;;;;;;5.43;47.14;99211.84;4919677;28;20687;-77
2024/03/29 06:51:22;;;;;;;2.05;0.10;;;;;;;5.94;45.90;99218.13;4906640;28;20039;-76
2024/03/29 06:53:48;;;;;;;0.77;0.05;;;;;;;6.06;46.07;99211.53;4934421;28;20967;-79
2024/03/29 06:56:15;;;;;;;1.23;0.10;;;;;;;6.37;45.13;99215.28;4935497;28;20195;-76
2024/03/29 06:58:42;;;;;;;0.90;0.10;;;;;;;6.30;45.35;99230.31;4933295;28;20082;-77
2024/03/29 07:01:08;;;;;;;0.50;0.10;;;;;;;6.46;45.08;99228.66;4936955;28;20031;-77
2024/03/29 07:03:33;;;;;;;2.95;0.15;;;;;;;6.39;45.22;99219.47;4914637;29;20038;-77
2024/03/29 07:05:59;;;;;;;3.30;0.17;;;;;;;6.48;44.97;99225.97;4919794;28;20478;-77
2024/03/29 07:08:25;;;;;;;2.35;0.10;;;;;;;6.04;45.98;99227.19;4931573;28;20149;-77
2024/03/29 07:11:01;;;;;;;1.23;0.10;;;;;;;6.30;45.66;99238.09;4936078;28;20031;-77
2024/03/29 07:13:32;;;;;;;1.98;0.10;;;;;;;6.66;44.86;99237.19;4946517;28;20126;-77
2024/03/29 07:15:59;;;;;;;4.22;0.30;;;;;;;5.97;46.05;99238.75;4934368;28;20035;-76
2024/03/29 07:18:25;;;;;;;1.77;0.13;;;;;;;6.02;46.75;99256.69;4932365;28;20043;-79
2024/03/29 07:20:51;;;;;;;1.20;0.10;;;;;;;5.75;47.07;99236.31;4927064;28;20031;-80
2024/03/29 07:23:16;;;;;;;2.25;0.10;;;;;;;6.11;47.39;99255.44;4941487;28;20090;-77
2024/03/29 07:25:46;;;;;;;2.72;0.50;;;;;;;5.70;47.69;99253.81;4932968;28;20212;-77
2024/03/29 07:28:14;;;;;;;2.28;0.20;;;;;;;6.69;46.01;99257.81;4949365;28;20327;-77
2024/03/29 07:30:44;;;;;;;5.07;0.20;;;;;;;6.72;46.14;99264.63;4931223;28;20105;-77
2024/03/29 07:33:10;;;;;;;2.58;0.20;;;;;;;6.34;47.10;99270.75;4942530;28;20039;-77
2024/03/29 07:35:37;;;;;;;0.40;0.00;;;;;;;5.70;48.10;99271.13;4932634;28;20035;-79
2024/03/29 07:38:03;;;;;;;2.28;0.10;;;;;;;6.35;47.15;99275.06;4934816;28;20087;-77
2024/03/29 07:40:29;;;;;;;1.65;0.10;;;;;;;6.31;47.65;99283.91;4932728;28;20031;-77
2024/03/29 07:42:55;;;;;;;0.80;0.10;;;;;;;5.95;48.55;99271.72;4935208;28;20039;-76
2024/03/29 07:45:24;;;;;;;4.38;0.10;;;;;;;6.26;48.34;99270.25;4919650;29;20055;-79
2024/03/29 07:47:52;;;;;;;0.90;0.10;;;;;;;6.49;48.42;99275.22;4922761;28;20043;-76
2024/03/29 07:50:24;;;;;;;1.00;0.03;;;;;;;6.34;48.52;99286.31;4933198;28;20039;-76
2024/03/29 07:52:50;;;;;;;1.05;0.03;;;;;;;6.33;48.80;99304.56;4923327;28;20039;-76
2024/03/29 07:55:15;;;;;;;0.28;0.00;;;;;;;5.88;50.29;99296.22;4938392;28;20039;-79
2024/03/29 07:57:41;;;;;;;1.77;0.20;;;;;;;6.79;48.19;99294.56;4952660;28;20230;-79
2024/03/29 08:00:07;;;;;;;1.05;0.10;;;;;;;7.56;47.16;99293.25;4927005;28;20059;-76
2024/03/29 08:02:33;;;;;;;2.35;0.10;;;;;;;7.64;46.82;99278.09;4933487;28;20039;-76
2024/03/29 08:04:58;;;;;;;2.75;0.10;;;;;;;8.78;43.96;99283.09;4926715;28;20146;-79
2024/03/29 08:07:24;;;;;;;0.63;0.10;;;;;;;7.61;45.56;99291.28;4950315;28;20049;-79
2024/03/29 08:09:51;;;;;;;0.05;0.00;;;;;;;8.09;45.26;99299.94;4921774;29;20047;-79
2024/03/29 08:12:16;;;;;;;1.27;0.00;;;;;;;7.52;47.01;99288.22;4935178;28;20050;-77
2024/03/29 08:14:42;;;;;;;0.70;0.10;;;;;;;7.12;47.53;99286.84;4934768;28;21261;-76
2024/03/29 08:17:09;;;;;;;0.68;0.00;;;;;;;6.77;48.12;99292.03;4952855;28;20169;-76
2024/03/29 08:19:44;;;;;;;4.75;0.57;;;;;;;7.80;46.28;99288.53;4938381;28;20039;-76
2024/03/29 08:22:10;;;;;;;2.05;0.10;;;;;;;7.81;46.21;99290.22;4941381;28;20521;-77
2024/03/29 08:24:37;;;;;;;1.50;0.10;;;;;;;8.07;46.48;99288.78;4934747;28;20035;-77
2024/03/29 08:27:02;;;;;;;0.70;0.10;;;;;;;9.29;43.00;99296.59;4937619;28;20161;-77
2024/03/29 08:29:28;;;;;;;0.65;0.20;;;;;;;9.69;42.73;99296.78;4949216;28;20414;-76
2024/03/29 08:31:54;;;;;;;1.85;0.10;;;;;;;10.81;39.44;99294.94;4936818;28;20066;-77
2024/03/29 08:34:19;;;;;;;2.25;0.10;;;;;;;12.27;36.76;99292.75;4940017;28;20114;-77
2024/03/29 08:36:45;;;;;;;0.15;0.00;;;;;;;11.82;37.49;99289.84;4933839;28;20817;-76
2024/03/29 08:39:11;;;;;;;0.70;0.00;;;;;;;12.27;36.34;99294.53;4938655;28;20618;-77
2024/03/29 08:41:37;;;;;;;0.47;0.00;;;;;;;11.36;38.38;99308.69;4932756;28;20280;-76
2024/03/29 08:44:02;;;;;;;0.82;0.10;;;;;;;10.90;39.46;99303.94;4936544;28;20083;-76
2024/03/29 08:46:28;;;;;;;1.20;0.00;;;;;;;8.63;43.77;99309.97;4923313;29;20031;-76
2024/03/29 08:48:54;;;;;;;0.75;0.13;;;;;;;8.49;44.70;99313.38;4953780;28;20671;-76
2024/03/29 08:51:20;;;;;;;0.20;0.20;;;;;;;8.49;44.15;99313.38;4940012;28;20063;-77
2024/03/29 08:53:46;;;;;;;2.88;0.30;;;;;;;8.08;45.25;99303.50;4936017;28;20631;-76
2024/03/29 08:56:15;;;;;;;1.15;0.30;;;;;;;8.75;44.13;99304.13;4941472;28;20039;-76
2024/03/29 08:58:41;;;;;;;0.10;0.03;;;;;;;7.87;45.25;99313.28;4952316;28;20051;-76
2024/03/29 09:01:07;;;;;;;0.28;0.10;;;;;;;8.04;45.52;99313.22;4912575;28;20125;-75
2024/03/29 09:03:32;;;;;;;0.00;0.00;;;;;;;8.62;43.86;99308.31;4942570;28;20560;-78
2024/03/29 09:05:58;;;;;;;0.52;0.05;;;;;;;8.24;44.55;99300.88;4939834;28;20031;-76
2024/03/29 09:08:23;;;;;;;0.10;0.00;;;;;;;8.00;45.52;99305.66;4951911;28;20051;-76
2024/03/29 09:10:49;;;;;;;0.45;0.05;;;;;;;8.90;43.90;99305.84;4927874;28;20039;-76
2024/03/29 09:13:15;;;;;;;2.17;0.10;;;;;;;9.36;42.25;99295.28;4928475;28;20118;-76
2024/03/29 09:15:40;;;;;;;1.05;0.20;;;;;;;8.87;43.03;99303.41;4951073;28;20110;-76
2024/03/29 09:18:11;;;;;;;0.68;0.00;;;;;;;8.58;43.65;99307.63;4935047;28;20043;-76
2024/03/29 09:20:37;;;;;;;0.10;0.10;;;;;;;8.67;43.55;99303.69;4935969;28;20042;-76
2024/03/29 09:23:03;;;;;;;0.20;0.03;;;;;;;9.03;42.68;99324.22;4936880;28;20043;-76
2024/03/29 09:25:30;;;;;;;0.13;0.00;;;;;;;8.53;44.31;99314.88;4937299;28;20042;-75
2024/03/29 09:27:55;;;;;;;1.50;0.10;;;;;;;7.87;45.18;99315.88;4951500;28;20031;-76
2024/03/29 09:30:22;;;;;;;1.20;0.10;;;;;;;8.48;43.77;99307.31;4937900;28;20031;-75
2024/03/29 09:32:49;;;;;;;0.00;0.00;;;;;;;8.83;43.43;99312.34;4935885;28;20055;-76
2024/03/29 09:35:15;;;;;;;2.90;0.30;;;;;;;8.39;43.81;99305.25;4950137;28;20045;-75
2024/03/29 09:37:42;;;;;;;1.88;0.05;;;;;;;7.62;45.75;99311.16;4934584;28;20043;-76
2024/03/29 09:40:10;;;;;;;0.80;0.10;;;;;;;7.99;45.10;99314.41;4922350;28;20031;-76
2024/03/29 09:42:38;;;;;;;0.52;0.10;;;;;;;8.51;44.01;99317.56;4935209;28;20582;-77
2024/03/29 09:45:05;;;;;;;0.50;0.00;;;;;;;8.33;44.95;99326.41;4940451;28;20231;-75
2024/03/29 09:47:32;;;;;;;0.43;0.00;;;;;;;8.48;44.77;99330.75;4939663;28;20321;-75
2024/03/29 09:50:02;;;;;;;0.60;0.10;;;;;;;8.86;43.86;99343.41;4922646;28;20050;-77
2024/03/29 09:52:28;;;;;;;0.68;0.10;;;;;;;8.27;44.97;99344.97;4937658;28;20465;-76
2024/03/29 09:54:56;;;;;;;2.65;0.10;;;;;;;8.44;44.49;99331.84;4936209;28;20089;-76
2024/03/29 09:57:21;;;;;;;3.75;0.40;;;;;;;8.98;43.43;99321.88;4952919;28;20043;-76
2024/03/29 09:59:47;;;;;;;0.63;0.10;;;;;;;8.51;44.35;99325.38;4935164;28;20024;-76
2024/03/29 10:02:17;;;;;;;0.88;0.05;;;;;;;9.09;44.14;99308.19;4936952;28;20565;-76
2024/03/29 10:04:45;;;;;;;3.15;0.35;;;;;;;9.40;42.86;99312.44;4937098;28;20054;-77
2024/03/29 10:07:12;;;;;;;0.60;0.10;;;;;;;8.95;43.44;99316.81;4938816;28;20039;-77
2024/03/29 10:09:39;;;;;;;0.68;0.10;;;;;;;9.24;43.62;99303.03;4924385;28;20102;-77
2024/03/29 10:12:04;;;;;;;0.82;0.00;;;;;;;8.97;43.51;99309.75;4939248;28;20122;-76
2024/03/29 10:14:31;;;;;;;2.88;0.30;;;;;;;8.85;43.94;99310.50;4923746;28;20035;-77
2024/03/29 10:16:59;;;;;;;0.45;0.10;;;;;;;9.48;42.86;99318.97;4920123;28;20565;-77
2024/03/29 10:19:25;;;;;;;1.98;0.40;;;;;;;9.00;44.23;99303.53;4936941;28;20039;-77
2024/03/29 10:21:50;;;;;;;2.63;0.28;;;;;;;10.24;42.39;99307.38;4929223;28;20550;-77
2024/03/29 10:24:20;;;;;;;0.73;0.10;;;;;;;10.91;41.87;99312.66;4921695;28;20768;-76
2024/03/29 10:26:46;;;;;;;0.55;0.10;;;;;;;10.73;42.66;99305.03;4920923;28;20035;-77
2024/03/29 10:29:11;;;;;;;2.75;0.10;;;;;;;10.97;41.14;99317.44;4951935;28;20410;-76
2024/03/29 10:31:37;;;;;;;0.57;0.17;;;;;;;8.45;45.34;99328.34;4937623;28;20039;-76
2024/03/29 10:34:05;;;;;;;3.85;0.20;;;;;;;9.10;45.05;99314.28;4952339;28;20673;-77
2024/03/29 10:36:35;;;;;;;0.88;0.20;;;;;;;9.70;42.90;99308.06;4931154;28;20102;-76
2024/03/29 10:39:13;;;;;;;0.45;0.10;;;;;;;9.19;44.50;99300.69;4982831;27;20129;-72
2024/03/29 10:41:40;;;;;;;;;;;;;;;9.46;43.70;99290.38;4982673;28;20129;-71
2024/03/29 10:44:10;;;;;;;2.25;0.20;;;;;;;8.47;45.76;99323.88;4982711;28;20540;-71
2024/03/29 10:46:36;;;;;;;4.80;0.28;;;;;;;9.26;45.02;99325.47;4984895;28;20037;-71
2024/03/29 10:49:03;;;;;;;0.55;0.10;;;;;;;8.74;46.67;99325.91;4986989;28;20116;-71
2024/03/29 10:51:30;;;;;;;0.80;0.10;;;;;;;9.46;44.58;99323.44;4986759;28;20038;-72
2024/03/29 10:53:57;;;;;;;2.40;0.25;;;;;;;9.49;44.32;99328.47;4986536;23;20104;-77
2024/03/29 10:56:24;;;;;;;0.68;0.15;;;;;;;9.23;45.43;99324.78;4964494;28;20058;-77
2024/03/29 10:58:55;;;;;;;0.60;0.30;;;;;;;9.37;44.85;99333.50;4918764;28;20036;-77
2024/03/29 11:01:22;;;;;;;1.75;0.20;;;;;;;9.37;44.88;99317.84;4951956;28;20042;-77
2024/03/29 11:03:53;;;;;;;1.33;0.17;;;;;;;10.36;43.72;99310.03;4966433;28;20111;-76
2024/03/29 11:06:23;;;;;;;0.88;0.25;;;;;;;9.67;44.03;99306.47;5000996;28;20037;-77
2024/03/29 11:08:52;;;;;;;0.55;0.10;;;;;;;10.52;42.72;99307.25;4973545;28;20046;-77
2024/03/29 11:11:18;;;;;;;2.95;0.17;;;;;;;10.49;42.03;99307.47;4997245;28;20034;-77
2024/03/29 11:14:07;;;;;;;0.65;0.10;;;;;;;10.36;42.62;99306.59;4978894;28;20045;-77
2024/03/29 11:16:33;;;;;;;1.70;0.20;;;;;;;11.23;41.53;99300.00;5003411;28;20033;-76
2024/03/29 11:19:00;;;;;;;1.60;0.20;;;;;;;11.92;40.66;99299.69;4986359;28;20038;-77
2024/03/29 11:21:28;;;;;;;2.60;0.30;;;;;;;10.77;41.45;99300.44;4983023;28;20463;-77
2024/03/29 11:23:55;;;;;;;2.15;0.30;;;;;;;10.98;40.35;99293.81;4998050;28;20464;-77
2024/03/29 11:26:20;;;;;;;0.88;0.10;;;;;;;9.97;42.40;99298.56;5001729;28;20057;-77
2024/03/29 11:28:50;;;;;;;1.92;0.25;;;;;;;10.29;42.47;99310.53;4982945;28;20168;-77
2024/03/29 11:31:16;;;;;;;3.70;0.32;;;;;;;10.22;42.57;99323.97;4964105;28;20248;-77
2024/03/29 11:33:45;;;;;;;0.50;0.10;;;;;;;10.63;41.85;99320.47;4980809;28;20218;-76
2024/03/29 11:36:11;;;;;;;3.03;0.68;;;;;;;10.40;42.51;99328.97;4986131;28;20441;-77
2024/03/29 11:38:37;;;;;;;1.83;0.30;;;;;;;11.02;42.12;99326.66;5002923;28;20537;-77
2024/03/29 11:41:07;;;;;;;1.08;0.08;;;;;;;10.00;41.98;99323.63;4973981;28;20260;-77
2024/03/29 11:43:34;;;;;;;1.27;0.10;;;;;;;10.11;42.22;99336.84;4977040;28;20112;-77
2024/03/29 11:46:01;;;;;;;1.10;0.00;;;;;;;10.35;42.48;99342.31;4989652;28;20042;-76